| time (UTC) | temp F | wind direction | speed MPH | gust MPH | rain 1hr in | rain 24hr in | rain mn in | humidity % | barometer mb |
| 20260503004532 | 75 | 176 | 4.0 | 9.0 | 0.00 | 0.00 | 0.00 | 73 | 1021.8 |
| 20260503003054 | 76 | 167 | 2.0 | 9.0 | 0.00 | 0.00 | 0.00 | 73 | 1021.9 |
| 20260503001521 | 76 | 108 | 4.0 | 9.0 | 0.00 | 0.00 | 0.00 | 71 | 1021.8 |
| 20260503000044 | 75 | 175 | 3.0 | 10.0 | 0.00 | 0.00 | 0.00 | 74 | 1022.0 |
| 20260502234517 | 74 | 175 | 4.0 | 10.0 | 0.00 | 0.00 | 0.00 | 75 | 1022.0 |
| 20260502233045 | 74 | 259 | 1.0 | 6.0 | 0.00 | 0.00 | 0.00 | 75 | 1022.1 |
| 20260502231555 | 73 | 190 | 2.0 | 7.0 | 0.00 | 0.00 | 0.00 | 76 | 1022.0 |
| 20260502230038 | 72 | 175 | 4.0 | 7.0 | 0.00 | 0.00 | 0.00 | 78 | 1022.0 |
| 20260502224504 | 72 | 176 | 4.0 | 9.0 | 0.00 | 0.00 | 0.00 | 79 | 1021.9 |
| 20260502223045 | 70 | 184 | 3.0 | 7.0 | 0.00 | 0.00 | 0.00 | 80 | 1021.9 |
| 20260502221603 | 69 | 191 | 4.0 | 8.0 | 0.00 | 0.00 | 0.00 | 80 | 1021.7 |
| 20260502220051 | 68 | 202 | 4.0 | 9.0 | 0.00 | 0.00 | 0.00 | 82 | 1021.5 |
| 20260502214551 | 67 | 183 | 4.0 | 8.0 | 0.00 | 0.00 | 0.00 | 84 | 1021.5 |
| 20260502213028 | 65 | 174 | 3.0 | 8.0 | 0.00 | 0.00 | 0.00 | 85 | 1021.3 |
| 20260502211544 | 65 | 176 | 2.0 | 7.0 | 0.00 | 0.00 | 0.00 | 85 | 1021.2 |
| 20260502210048 | 65 | 178 | 3.0 | 8.0 | 0.00 | 0.02 | 0.00 | 86 | 1021.2 |
| 20260502204509 | 64 | 181 | 3.0 | 8.0 | 0.00 | 0.02 | 0.00 | 86 | 1021.1 |
| 20260502203055 | 64 | 183 | 4.0 | 7.0 | 0.00 | 0.02 | 0.00 | 87 | 1021.0 |
| 20260502201512 | 64 | 180 | 4.0 | 7.0 | 0.00 | 0.02 | 0.00 | 87 | 1020.9 |
| 20260502200043 | 64 | 175 | 4.0 | 7.0 | 0.00 | 0.02 | 0.00 | 88 | 1020.7 |
| 20260502194514 | 64 | 197 | 4.0 | 10.0 | 0.00 | 0.02 | 0.00 | 88 | 1020.5 |
| 20260502193044 | 64 | 226 | 3.0 | 7.0 | 0.00 | 0.02 | 0.00 | 88 | 1020.4 |
| 20260502191506 | 64 | 189 | 3.0 | 8.0 | 0.00 | 0.02 | 0.00 | 87 | 1020.3 |
| 20260502190036 | 65 | 196 | 4.0 | 7.0 | 0.00 | 0.02 | 0.00 | 88 | 1020.3 |
| 20260502184556 | 65 | 207 | 2.0 | 7.0 | 0.00 | 0.02 | 0.00 | 88 | 1020.4 |
| 20260502183028 | 65 | 179 | 3.0 | 7.0 | 0.00 | 0.02 | 0.00 | 88 | 1020.4 |
| 20260502181552 | 65 | 204 | 4.0 | 7.0 | 0.00 | 0.02 | 0.00 | 89 | 1020.4 |
| 20260502163038 | 67 | 202 | 1.0 | 4.0 | 0.00 | 0.02 | 0.00 | 83 | 1020.7 |
| 20260502161554 | 69 | 190 | 1.0 | 5.0 | 0.00 | 0.02 | 0.00 | 80 | 1020.7 |
| 20260502151517 | 72 | 167 | 5.0 | 10.0 | 0.00 | 0.02 | 0.00 | 72 | 1021.0 |
| 20260502123100 | 72 | 112 | 4.0 | 11.0 | 0.00 | 0.06 | 0.02 | 75 | 1021.9 |
| 20260502123009 | 72 | 122 | 3.0 | 11.0 | 0.00 | 0.06 | 0.02 | 75 | 1022.0 |
| 20260502121524 | 72 | 96 | 6.0 | 12.0 | 0.00 | 0.06 | 0.02 | 75 | 1022.1 |
| 20260502120106 | 72 | 91 | 4.0 | 11.0 | 0.00 | 0.10 | 0.02 | 74 | 1022.0 |
| 20260502114617 | 73 | 125 | 6.0 | 14.0 | 0.00 | 0.10 | 0.02 | 75 | 1022.0 |
| 20260502113043 | 73 | 122 | 4.0 | 12.0 | 0.00 | 0.10 | 0.02 | 76 | 1022.0 |
| 20260502111510 | 73 | 117 | 6.0 | 13.0 | 0.00 | 0.10 | 0.02 | 75 | 1021.9 |
| 20260502110036 | 73 | 99 | 7.0 | 16.0 | 0.00 | 0.15 | 0.02 | 76 | 1022.0 |
| 20260502104558 | 73 | 102 | 5.0 | 11.0 | 0.00 | 0.15 | 0.02 | 76 | 1021.9 |
| 20260502103037 | 73 | 114 | 4.0 | 11.0 | 0.00 | 0.15 | 0.02 | 74 | 1022.1 |
| 20260502101522 | 73 | 122 | 5.0 | 12.0 | 0.00 | 0.15 | 0.02 | 75 | 1022.0 |
| 20260502100108 | 73 | 171 | 6.0 | 12.0 | 0.00 | 0.18 | 0.02 | 76 | 1021.9 |
| 20260502091513 | 73 | 115 | 5.0 | 14.0 | 0.00 | 0.18 | 0.02 | 77 | 1021.1 |
| 20260502071519 | 73 | 84 | 5.0 | 12.0 | 0.00 | 0.18 | 0.02 | 78 | 1019.9 |
| 20260502070100 | 74 | 89 | 5.0 | 13.0 | 0.00 | 0.18 | 0.02 | 77 | 1019.8 |
| 20260502064533 | 74 | 127 | 8.0 | 15.0 | 0.00 | 0.18 | 0.02 | 77 | 1019.8 |
| 20260502063124 | 74 | 97 | 6.0 | 13.0 | 0.00 | 0.18 | 0.02 | 76 | 1019.7 |
| 20260502061519 | 75 | 103 | 6.0 | 15.0 | 0.00 | 0.18 | 0.02 | 76 | 1019.9 |
| 20260502060025 | 75 | 133 | 6.0 | 12.0 | 0.00 | 0.18 | 0.02 | 75 | 1020.0 |
| 20260502054545 | 74 | 110 | 4.0 | 15.0 | 0.00 | 0.18 | 0.02 | 77 | 1019.8 |
| 20260502053009 | 75 | 139 | 5.0 | 12.0 | 0.00 | 0.18 | 0.02 | 77 | 1019.9 |
| 20260502051511 | 76 | 116 | 7.0 | 19.0 | 0.00 | 0.18 | 0.02 | 75 | 1019.9 |
| 20260502050055 | 77 | 103 | 5.0 | 12.0 | 0.00 | 0.18 | 0.02 | 74 | 1020.0 |
| 20260502050004 | 77 | 122 | 5.0 | 12.0 | 0.00 | 0.18 | 0.02 | 74 | 1019.8 |
| 20260502044552 | 76 | 96 | 6.0 | 15.0 | 0.00 | 0.18 | 0.02 | 74 | 1019.9 |
| 20260502043017 | 77 | 116 | 8.0 | 16.0 | 0.00 | 0.18 | 0.02 | 74 | 1019.9 |
| 20260502041553 | 77 | 187 | 5.0 | 13.0 | 0.00 | 0.18 | 0.02 | 74 | 1019.9 |
| 20260502040009 | 77 | 174 | 7.0 | 13.0 | 0.00 | 0.18 | 0.02 | 75 | 1020.0 |
| 20260502034541 | 77 | 112 | 7.0 | 14.0 | 0.00 | 0.18 | 0.02 | 72 | 1020.1 |
| 20260502033009 | 77 | 91 | 6.0 | 15.0 | 0.00 | 0.18 | 0.02 | 73 | 1020.0 |
| 20260502031539 | 76 | 114 | 6.0 | 12.0 | 0.00 | 0.18 | 0.02 | 74 | 1020.1 |
| 20260502030009 | 77 | 162 | 3.0 | 18.0 | 0.00 | 0.18 | 0.02 | 73 | 1020.3 |
| 20260502024539 | 77 | 163 | 6.0 | 16.0 | 0.00 | 0.18 | 0.02 | 74 | 1020.5 |
| 20260502023009 | 77 | 87 | 9.0 | 15.0 | 0.00 | 0.18 | 0.02 | 73 | 1020.9 |
| 20260502021538 | 76 | 99 | 9.0 | 18.0 | 0.00 | 0.18 | 0.02 | 74 | 1021.2 |
| 20260502020001 | 76 | 114 | 5.0 | 15.0 | 0.00 | 0.18 | 0.02 | 76 | 1021.4 |
| 20260502014533 | 76 | 97 | 7.0 | 18.0 | 0.00 | 0.18 | 0.02 | 74 | 1021.5 |
| 20260502013003 | 76 | 125 | 9.0 | 20.0 | 0.00 | 0.18 | 0.02 | 74 | 1021.7 |
| 20260502011525 | 77 | 141 | 8.0 | 16.0 | 0.00 | 0.18 | 0.02 | 74 | 1021.9 |
| 20260502010043 | 76 | 120 | 8.0 | 18.0 | 0.00 | 0.18 | 0.02 | 73 | 1022.2 |